sensor_id;sensor_type;location;lat;lon;timestamp;P1;durP1;ratioP1;P2;durP2;ratioP2
23404;SDS011;11875;49.356;2.718;2023-05-01T00:00:16;9.48;;;7.10;;
23404;SDS011;11875;49.356;2.718;2023-05-01T00:02:42;8.05;;;6.88;;
23404;SDS011;11875;49.356;2.718;2023-05-01T00:05:08;9.93;;;6.82;;
23404;SDS011;11875;49.356;2.718;2023-05-01T00:07:33;11.80;;;8.43;;
23404;SDS011;11875;49.356;2.718;2023-05-01T00:09:59;12.07;;;7.53;;
23404;SDS011;11875;49.356;2.718;2023-05-01T00:12:25;8.60;;;7.70;;
23404;SDS011;11875;49.356;2.718;2023-05-01T00:14:50;9.90;;;8.20;;
23404;SDS011;11875;49.356;2.718;2023-05-01T00:17:18;12.20;;;9.37;;
23404;SDS011;11875;49.356;2.718;2023-05-01T00:19:43;14.33;;;8.73;;
23404;SDS011;11875;49.356;2.718;2023-05-01T00:22:09;9.35;;;7.15;;
23404;SDS011;11875;49.356;2.718;2023-05-01T00:24:34;9.03;;;7.70;;
23404;SDS011;11875;49.356;2.718;2023-05-01T00:27:00;12.90;;;7.87;;
23404;SDS011;11875;49.356;2.718;2023-05-01T00:29:25;12.43;;;8.45;;
23404;SDS011;11875;49.356;2.718;2023-05-01T00:31:52;10.73;;;8.00;;
23404;SDS011;11875;49.356;2.718;2023-05-01T00:34:19;9.67;;;7.43;;
23404;SDS011;11875;49.356;2.718;2023-05-01T00:36:44;10.57;;;8.00;;
23404;SDS011;11875;49.356;2.718;2023-05-01T00:39:10;11.13;;;8.60;;
23404;SDS011;11875;49.356;2.718;2023-05-01T00:41:36;9.80;;;8.23;;
23404;SDS011;11875;49.356;2.718;2023-05-01T00:44:02;9.73;;;7.83;;
23404;SDS011;11875;49.356;2.718;2023-05-01T00:46:28;13.53;;;8.70;;
23404;SDS011;11875;49.356;2.718;2023-05-01T00:48:56;10.23;;;7.50;;
23404;SDS011;11875;49.356;2.718;2023-05-01T00:51:22;9.73;;;7.63;;
23404;SDS011;11875;49.356;2.718;2023-05-01T00:53:48;11.10;;;7.95;;
23404;SDS011;11875;49.356;2.718;2023-05-01T00:56:14;9.13;;;7.57;;
23404;SDS011;11875;49.356;2.718;2023-05-01T00:58:41;10.30;;;8.30;;
23404;SDS011;11875;49.356;2.718;2023-05-01T01:01:07;14.07;;;9.60;;
23404;SDS011;11875;49.356;2.718;2023-05-01T01:03:33;13.07;;;10.47;;
23404;SDS011;11875;49.356;2.718;2023-05-01T01:06:03;12.20;;;8.90;;
23404;SDS011;11875;49.356;2.718;2023-05-01T01:08:37;10.67;;;8.53;;
23404;SDS011;11875;49.356;2.718;2023-05-01T01:11:28;11.17;;;8.23;;
23404;SDS011;11875;49.356;2.718;2023-05-01T01:14:09;11.53;;;8.50;;
23404;SDS011;11875;49.356;2.718;2023-05-01T01:16:45;13.63;;;9.33;;
23404;SDS011;11875;49.356;2.718;2023-05-01T01:22:12;12.03;;;8.67;;
23404;SDS011;11875;49.356;2.718;2023-05-01T01:30:12;12.10;;;8.57;;
23404;SDS011;11875;49.356;2.718;2023-05-01T01:35:55;13.10;;;9.10;;
23404;SDS011;11875;49.356;2.718;2023-05-01T01:38:29;13.40;;;8.50;;
23404;SDS011;11875;49.356;2.718;2023-05-01T01:41:08;11.57;;;7.90;;
23404;SDS011;11875;49.356;2.718;2023-05-01T01:43:39;11.33;;;8.40;;
23404;SDS011;11875;49.356;2.718;2023-05-01T01:46:09;11.67;;;8.63;;
23404;SDS011;11875;49.356;2.718;2023-05-01T01:48:37;12.30;;;8.40;;
23404;SDS011;11875;49.356;2.718;2023-05-01T01:51:10;11.87;;;9.07;;
23404;SDS011;11875;49.356;2.718;2023-05-01T01:53:39;13.00;;;9.10;;
23404;SDS011;11875;49.356;2.718;2023-05-01T01:56:08;11.70;;;9.10;;
23404;SDS011;11875;49.356;2.718;2023-05-01T01:58:35;12.47;;;8.83;;
23404;SDS011;11875;49.356;2.718;2023-05-01T02:01:03;13.57;;;8.90;;
23404;SDS011;11875;49.356;2.718;2023-05-01T02:03:30;8.87;;;7.77;;
23404;SDS011;11875;49.356;2.718;2023-05-01T02:05:57;9.63;;;7.80;;
23404;SDS011;11875;49.356;2.718;2023-05-01T02:08:24;11.27;;;8.23;;
23404;SDS011;11875;49.356;2.718;2023-05-01T02:10:54;13.33;;;8.57;;
23404;SDS011;11875;49.356;2.718;2023-05-01T02:13:23;11.07;;;7.97;;
23404;SDS011;11875;49.356;2.718;2023-05-01T02:15:51;12.23;;;8.20;;
23404;SDS011;11875;49.356;2.718;2023-05-01T02:18:17;12.73;;;8.80;;
23404;SDS011;11875;49.356;2.718;2023-05-01T02:20:45;12.60;;;8.90;;
23404;SDS011;11875;49.356;2.718;2023-05-01T02:23:11;10.67;;;7.93;;
23404;SDS011;11875;49.356;2.718;2023-05-01T02:25:37;12.07;;;8.63;;
23404;SDS011;11875;49.356;2.718;2023-05-01T02:28:07;11.50;;;8.23;;
23404;SDS011;11875;49.356;2.718;2023-05-01T02:30:37;11.90;;;8.53;;
23404;SDS011;11875;49.356;2.718;2023-05-01T02:33:05;11.27;;;8.97;;
23404;SDS011;11875;49.356;2.718;2023-05-01T02:35:37;12.20;;;8.80;;
23404;SDS011;11875;49.356;2.718;2023-05-01T02:38:03;14.60;;;9.80;;
23404;SDS011;11875;49.356;2.718;2023-05-01T02:40:30;12.53;;;9.57;;
23404;SDS011;11875;49.356;2.718;2023-05-01T02:42:56;11.53;;;9.03;;
23404;SDS011;11875;49.356;2.718;2023-05-01T02:45:24;11.93;;;8.87;;
23404;SDS011;11875;49.356;2.718;2023-05-01T02:47:51;10.63;;;8.83;;
23404;SDS011;11875;49.356;2.718;2023-05-01T02:50:20;15.30;;;9.87;;
23404;SDS011;11875;49.356;2.718;2023-05-01T02:52:47;13.80;;;9.17;;
23404;SDS011;11875;49.356;2.718;2023-05-01T02:55:13;13.17;;;8.97;;
23404;SDS011;11875;49.356;2.718;2023-05-01T02:57:40;11.63;;;8.77;;
23404;SDS011;11875;49.356;2.718;2023-05-01T03:00:06;10.77;;;8.13;;
23404;SDS011;11875;49.356;2.718;2023-05-01T03:02:35;11.63;;;8.77;;
23404;SDS011;11875;49.356;2.718;2023-05-01T03:05:01;13.27;;;8.03;;
23404;SDS011;11875;49.356;2.718;2023-05-01T03:07:26;9.17;;;7.40;;
23404;SDS011;11875;49.356;2.718;2023-05-01T03:09:58;10.60;;;7.73;;
23404;SDS011;11875;49.356;2.718;2023-05-01T03:12:28;10.83;;;8.17;;
23404;SDS011;11875;49.356;2.718;2023-05-01T03:14:54;9.77;;;7.60;;
23404;SDS011;11875;49.356;2.718;2023-05-01T03:17:20;10.40;;;7.53;;
23404;SDS011;11875;49.356;2.718;2023-05-01T03:19:46;10.20;;;8.00;;
23404;SDS011;11875;49.356;2.718;2023-05-01T03:22:13;10.97;;;7.63;;
23404;SDS011;11875;49.356;2.718;2023-05-01T03:24:39;11.10;;;7.80;;
23404;SDS011;11875;49.356;2.718;2023-05-01T03:27:04;9.00;;;7.53;;
23404;SDS011;11875;49.356;2.718;2023-05-01T03:29:31;12.03;;;8.03;;
23404;SDS011;11875;49.356;2.718;2023-05-01T03:31:58;14.63;;;7.93;;
23404;SDS011;11875;49.356;2.718;2023-05-01T03:34:24;9.13;;;7.60;;
23404;SDS011;11875;49.356;2.718;2023-05-01T03:36:49;12.70;;;9.93;;
23404;SDS011;11875;49.356;2.718;2023-05-01T03:39:15;13.77;;;10.60;;
23404;SDS011;11875;49.356;2.718;2023-05-01T03:41:41;12.97;;;10.00;;
23404;SDS011;11875;49.356;2.718;2023-05-01T03:44:07;13.80;;;10.13;;
23404;SDS011;11875;49.356;2.718;2023-05-01T03:46:32;15.90;;;10.80;;
23404;SDS011;11875;49.356;2.718;2023-05-01T03:48:58;13.50;;;10.83;;
23404;SDS011;11875;49.356;2.718;2023-05-01T03:51:24;15.23;;;11.30;;
23404;SDS011;11875;49.356;2.718;2023-05-01T03:53:49;16.87;;;11.47;;
23404;SDS011;11875;49.356;2.718;2023-05-01T03:56:16;15.07;;;10.70;;
23404;SDS011;11875;49.356;2.718;2023-05-01T03:58:42;15.17;;;12.20;;
23404;SDS011;11875;49.356;2.718;2023-05-01T04:01:07;17.70;;;11.97;;
23404;SDS011;11875;49.356;2.718;2023-05-01T04:03:33;16.63;;;11.10;;
23404;SDS011;11875;49.356;2.718;2023-05-01T04:05:59;20.30;;;12.23;;
23404;SDS011;11875;49.356;2.718;2023-05-01T04:08:24;14.67;;;11.67;;
23404;SDS011;11875;49.356;2.718;2023-05-01T04:10:50;15.77;;;11.80;;
23404;SDS011;11875;49.356;2.718;2023-05-01T04:13:16;14.83;;;11.33;;
23404;SDS011;11875;49.356;2.718;2023-05-01T04:15:44;16.10;;;11.57;;
23404;SDS011;11875;49.356;2.718;2023-05-01T04:18:10;20.07;;;12.20;;
23404;SDS011;11875;49.356;2.718;2023-05-01T04:20:36;15.00;;;11.00;;
23404;SDS011;11875;49.356;2.718;2023-05-01T04:23:02;13.80;;;11.37;;
23404;SDS011;11875;49.356;2.718;2023-05-01T04:25:27;18.00;;;11.40;;
23404;SDS011;11875;49.356;2.718;2023-05-01T04:27:53;14.93;;;11.13;;
23404;SDS011;11875;49.356;2.718;2023-05-01T04:30:19;13.13;;;10.73;;
23404;SDS011;11875;49.356;2.718;2023-05-01T04:32:44;17.57;;;11.00;;
23404;SDS011;11875;49.356;2.718;2023-05-01T04:35:10;14.87;;;10.97;;
23404;SDS011;11875;49.356;2.718;2023-05-01T04:37:36;14.03;;;10.90;;
23404;SDS011;11875;49.356;2.718;2023-05-01T04:40:01;16.83;;;11.00;;
23404;SDS011;11875;49.356;2.718;2023-05-01T04:42:30;16.73;;;12.10;;
23404;SDS011;11875;49.356;2.718;2023-05-01T04:44:56;15.30;;;11.43;;
23404;SDS011;11875;49.356;2.718;2023-05-01T04:47:22;16.17;;;11.73;;
23404;SDS011;11875;49.356;2.718;2023-05-01T04:49:47;14.80;;;11.53;;
23404;SDS011;11875;49.356;2.718;2023-05-01T04:52:13;18.10;;;11.50;;
23404;SDS011;11875;49.356;2.718;2023-05-01T04:54:38;14.50;;;11.37;;
23404;SDS011;11875;49.356;2.718;2023-05-01T04:57:04;15.17;;;11.47;;
23404;SDS011;11875;49.356;2.718;2023-05-01T04:59:30;15.07;;;11.37;;
23404;SDS011;11875;49.356;2.718;2023-05-01T05:01:56;15.80;;;12.30;;
23404;SDS011;11875;49.356;2.718;2023-05-01T05:04:21;14.33;;;11.60;;
23404;SDS011;11875;49.356;2.718;2023-05-01T05:06:47;16.37;;;11.67;;
23404;SDS011;11875;49.356;2.718;2023-05-01T05:09:13;13.73;;;11.17;;
23404;SDS011;11875;49.356;2.718;2023-05-01T05:11:38;18.03;;;12.07;;
23404;SDS011;11875;49.356;2.718;2023-05-01T05:14:05;14.87;;;11.27;;
23404;SDS011;11875;49.356;2.718;2023-05-01T05:16:31;14.50;;;12.30;;
23404;SDS011;11875;49.356;2.718;2023-05-01T05:18:56;16.37;;;12.17;;
23404;SDS011;11875;49.356;2.718;2023-05-01T05:21:22;13.07;;;10.63;;
23404;SDS011;11875;49.356;2.718;2023-05-01T05:23:47;16.47;;;11.27;;
23404;SDS011;11875;49.356;2.718;2023-05-01T05:26:13;15.27;;;12.30;;
23404;SDS011;11875;49.356;2.718;2023-05-01T05:28:39;18.60;;;11.53;;
23404;SDS011;11875;49.356;2.718;2023-05-01T05:31:05;15.37;;;12.03;;
23404;SDS011;11875;49.356;2.718;2023-05-01T05:33:30;18.67;;;12.80;;
23404;SDS011;11875;49.356;2.718;2023-05-01T05:35:57;18.07;;;12.10;;
23404;SDS011;11875;49.356;2.718;2023-05-01T05:38:23;19.23;;;13.10;;
23404;SDS011;11875;49.356;2.718;2023-05-01T05:40:48;17.50;;;12.77;;
23404;SDS011;11875;49.356;2.718;2023-05-01T05:43:14;18.20;;;12.83;;
23404;SDS011;11875;49.356;2.718;2023-05-01T05:45:40;17.40;;;13.47;;
23404;SDS011;11875;49.356;2.718;2023-05-01T05:48:05;19.77;;;13.33;;
23404;SDS011;11875;49.356;2.718;2023-05-01T05:50:31;39.30;;;29.20;;
23404;SDS011;11875;49.356;2.718;2023-05-01T05:52:57;18.43;;;13.47;;
23404;SDS011;11875;49.356;2.718;2023-05-01T05:55:22;18.53;;;12.67;;
23404;SDS011;11875;49.356;2.718;2023-05-01T05:57:48;17.83;;;13.27;;
23404;SDS011;11875;49.356;2.718;2023-05-01T06:00:13;18.50;;;13.27;;
23404;SDS011;11875;49.356;2.718;2023-05-01T06:02:39;20.80;;;13.87;;
23404;SDS011;11875;49.356;2.718;2023-05-01T06:05:05;18.27;;;13.70;;
23404;SDS011;11875;49.356;2.718;2023-05-01T06:07:31;19.03;;;13.60;;
23404;SDS011;11875;49.356;2.718;2023-05-01T06:09:57;20.33;;;14.40;;
23404;SDS011;11875;49.356;2.718;2023-05-01T06:12:29;20.77;;;14.40;;
23404;SDS011;11875;49.356;2.718;2023-05-01T06:14:55;21.63;;;15.63;;
23404;SDS011;11875;49.356;2.718;2023-05-01T06:17:24;21.73;;;16.30;;
23404;SDS011;11875;49.356;2.718;2023-05-01T06:19:50;22.57;;;16.50;;
23404;SDS011;11875;49.356;2.718;2023-05-01T06:22:17;22.03;;;15.83;;
23404;SDS011;11875;49.356;2.718;2023-05-01T06:24:43;22.60;;;16.03;;
23404;SDS011;11875;49.356;2.718;2023-05-01T06:27:09;26.80;;;17.10;;
23404;SDS011;11875;49.356;2.718;2023-05-01T06:29:35;30.37;;;17.60;;
23404;SDS011;11875;49.356;2.718;2023-05-01T06:32:01;31.60;;;19.27;;
23404;SDS011;11875;49.356;2.718;2023-05-01T06:34:27;28.00;;;18.83;;
23404;SDS011;11875;49.356;2.718;2023-05-01T06:36:52;28.70;;;18.27;;
23404;SDS011;11875;49.356;2.718;2023-05-01T06:39:18;28.20;;;18.75;;
23404;SDS011;11875;49.356;2.718;2023-05-01T06:41:47;31.83;;;19.20;;
23404;SDS011;11875;49.356;2.718;2023-05-01T06:44:12;29.87;;;19.73;;
23404;SDS011;11875;49.356;2.718;2023-05-01T06:46:38;34.78;;;20.85;;
23404;SDS011;11875;49.356;2.718;2023-05-01T06:49:04;31.25;;;20.58;;
23404;SDS011;11875;49.356;2.718;2023-05-01T06:51:30;35.13;;;21.50;;
23404;SDS011;11875;49.356;2.718;2023-05-01T06:53:56;34.03;;;22.40;;
23404;SDS011;11875;49.356;2.718;2023-05-01T06:56:22;34.58;;;22.55;;
23404;SDS011;11875;49.356;2.718;2023-05-01T06:58:48;38.10;;;24.35;;
23404;SDS011;11875;49.356;2.718;2023-05-01T07:01:13;36.13;;;22.60;;
23404;SDS011;11875;49.356;2.718;2023-05-01T07:03:39;40.22;;;25.20;;
23404;SDS011;11875;49.356;2.718;2023-05-01T07:06:05;42.88;;;26.38;;
23404;SDS011;11875;49.356;2.718;2023-05-01T07:08:31;43.38;;;26.80;;
23404;SDS011;11875;49.356;2.718;2023-05-01T07:10:56;41.20;;;27.30;;
23404;SDS011;11875;49.356;2.718;2023-05-01T07:13:22;42.67;;;27.25;;
23404;SDS011;11875;49.356;2.718;2023-05-01T07:15:48;42.55;;;27.20;;
23404;SDS011;11875;49.356;2.718;2023-05-01T07:18:14;37.67;;;26.00;;
23404;SDS011;11875;49.356;2.718;2023-05-01T07:20:41;44.75;;;28.48;;
23404;SDS011;11875;49.356;2.718;2023-05-01T07:23:07;41.92;;;26.50;;
23404;SDS011;11875;49.356;2.718;2023-05-01T07:25:33;38.97;;;25.77;;
23404;SDS011;11875;49.356;2.718;2023-05-01T07:28:01;41.65;;;27.63;;
23404;SDS011;11875;49.356;2.718;2023-05-01T07:30:29;38.78;;;25.73;;
23404;SDS011;11875;49.356;2.718;2023-05-01T07:32:55;42.22;;;26.27;;
23404;SDS011;11875;49.356;2.718;2023-05-01T07:35:21;36.95;;;25.08;;
23404;SDS011;11875;49.356;2.718;2023-05-01T07:37:48;39.95;;;26.52;;
23404;SDS011;11875;49.356;2.718;2023-05-01T07:40:15;37.97;;;25.27;;
23404;SDS011;11875;49.356;2.718;2023-05-01T07:42:41;40.53;;;25.00;;
23404;SDS011;11875;49.356;2.718;2023-05-01T07:45:07;38.67;;;25.40;;
23404;SDS011;11875;49.356;2.718;2023-05-01T07:47:33;35.75;;;24.50;;
23404;SDS011;11875;49.356;2.718;2023-05-01T07:49:59;38.88;;;25.48;;
23404;SDS011;11875;49.356;2.718;2023-05-01T07:52:25;37.10;;;24.10;;
23404;SDS011;11875;49.356;2.718;2023-05-01T07:54:51;37.60;;;24.58;;
23404;SDS011;11875;49.356;2.718;2023-05-01T07:57:16;37.67;;;24.38;;
23404;SDS011;11875;49.356;2.718;2023-05-01T07:59:42;33.97;;;23.35;;
23404;SDS011;11875;49.356;2.718;2023-05-01T08:02:08;43.95;;;33.72;;
23404;SDS011;11875;49.356;2.718;2023-05-01T08:04:34;35.72;;;24.77;;
23404;SDS011;11875;49.356;2.718;2023-05-01T08:06:59;33.33;;;23.73;;
23404;SDS011;11875;49.356;2.718;2023-05-01T08:09:25;31.23;;;22.73;;
23404;SDS011;11875;49.356;2.718;2023-05-01T08:11:51;35.97;;;24.55;;
23404;SDS011;11875;49.356;2.718;2023-05-01T08:14:16;40.40;;;25.65;;
23404;SDS011;11875;49.356;2.718;2023-05-01T08:16:43;35.58;;;23.15;;
23404;SDS011;11875;49.356;2.718;2023-05-01T08:19:08;37.00;;;24.10;;
23404;SDS011;11875;49.356;2.718;2023-05-01T08:21:34;34.88;;;23.20;;
23404;SDS011;11875;49.356;2.718;2023-05-01T08:24:00;34.58;;;22.33;;
23404;SDS011;11875;49.356;2.718;2023-05-01T08:26:25;34.28;;;22.33;;
23404;SDS011;11875;49.356;2.718;2023-05-01T08:28:51;32.65;;;23.38;;
23404;SDS011;11875;49.356;2.718;2023-05-01T08:31:16;33.38;;;23.38;;
23404;SDS011;11875;49.356;2.718;2023-05-01T08:33:43;36.00;;;24.27;;
23404;SDS011;11875;49.356;2.718;2023-05-01T08:36:09;34.53;;;24.00;;
23404;SDS011;11875;49.356;2.718;2023-05-01T08:38:35;37.28;;;25.65;;
23404;SDS011;11875;49.356;2.718;2023-05-01T08:41:01;41.08;;;24.30;;
23404;SDS011;11875;49.356;2.718;2023-05-01T08:43:30;37.65;;;24.25;;
23404;SDS011;11875;49.356;2.718;2023-05-01T08:46:00;34.35;;;24.35;;
23404;SDS011;11875;49.356;2.718;2023-05-01T08:48:28;34.30;;;22.90;;
23404;SDS011;11875;49.356;2.718;2023-05-01T08:50:56;37.33;;;23.27;;
23404;SDS011;11875;49.356;2.718;2023-05-01T08:53:24;37.60;;;23.60;;
23404;SDS011;11875;49.356;2.718;2023-05-01T08:55:50;36.78;;;23.92;;
23404;SDS011;11875;49.356;2.718;2023-05-01T08:58:17;36.92;;;25.13;;
23404;SDS011;11875;49.356;2.718;2023-05-01T09:00:44;36.53;;;25.00;;
23404;SDS011;11875;49.356;2.718;2023-05-01T09:03:11;40.30;;;25.38;;
23404;SDS011;11875;49.356;2.718;2023-05-01T09:05:40;39.70;;;26.10;;
23404;SDS011;11875;49.356;2.718;2023-05-01T09:08:06;36.42;;;23.83;;
23404;SDS011;11875;49.356;2.718;2023-05-01T09:10:32;33.83;;;23.83;;
23404;SDS011;11875;49.356;2.718;2023-05-01T09:13:01;33.63;;;23.48;;
23404;SDS011;11875;49.356;2.718;2023-05-01T09:15:31;36.60;;;24.52;;
23404;SDS011;11875;49.356;2.718;2023-05-01T09:17:58;36.75;;;23.63;;
23404;SDS011;11875;49.356;2.718;2023-05-01T09:20:25;39.88;;;24.00;;
23404;SDS011;11875;49.356;2.718;2023-05-01T09:22:51;34.72;;;22.67;;
23404;SDS011;11875;49.356;2.718;2023-05-01T09:25:17;31.67;;;22.08;;
23404;SDS011;11875;49.356;2.718;2023-05-01T09:27:43;29.73;;;21.30;;
23404;SDS011;11875;49.356;2.718;2023-05-01T09:30:09;31.65;;;21.55;;
23404;SDS011;11875;49.356;2.718;2023-05-01T09:33:18;32.00;;;17.50;;
23404;SDS011;11875;49.356;2.718;2023-05-01T09:35:47;24.75;;;16.45;;
23404;SDS011;11875;49.356;2.718;2023-05-01T09:38:22;25.35;;;16.75;;
23404;SDS011;11875;49.356;2.718;2023-05-01T09:40:49;27.70;;;16.85;;
23404;SDS011;11875;49.356;2.718;2023-05-01T09:43:26;24.40;;;15.85;;
23404;SDS011;11875;49.356;2.718;2023-05-01T09:46:00;25.50;;;16.30;;
23404;SDS011;11875;49.356;2.718;2023-05-01T09:48:37;21.33;;;14.23;;
23404;SDS011;11875;49.356;2.718;2023-05-01T09:51:36;21.55;;;13.85;;
23404;SDS011;11875;49.356;2.718;2023-05-01T09:53:59;17.70;;;12.38;;
23404;SDS011;11875;49.356;2.718;2023-05-01T09:56:26;18.02;;;11.88;;
23404;SDS011;11875;49.356;2.718;2023-05-01T09:58:53;18.65;;;11.90;;
23404;SDS011;11875;49.356;2.718;2023-05-01T10:01:37;15.00;;;11.13;;
23404;SDS011;11875;49.356;2.718;2023-05-01T10:04:03;17.42;;;10.70;;
23404;SDS011;11875;49.356;2.718;2023-05-01T10:06:29;15.73;;;10.48;;
23404;SDS011;11875;49.356;2.718;2023-05-01T10:08:54;15.73;;;9.90;;
23404;SDS011;11875;49.356;2.718;2023-05-01T10:11:20;15.27;;;10.20;;
23404;SDS011;11875;49.356;2.718;2023-05-01T10:14:03;12.65;;;8.80;;
23404;SDS011;11875;49.356;2.718;2023-05-01T10:16:37;14.18;;;9.05;;
23404;SDS011;11875;49.356;2.718;2023-05-01T10:19:03;13.02;;;8.48;;
23404;SDS011;11875;49.356;2.718;2023-05-01T10:21:29;15.27;;;9.13;;
23404;SDS011;11875;49.356;2.718;2023-05-01T10:23:57;13.35;;;9.10;;
23404;SDS011;11875;49.356;2.718;2023-05-01T10:26:23;12.98;;;8.52;;
23404;SDS011;11875;49.356;2.718;2023-05-01T10:28:50;12.80;;;9.25;;
23404;SDS011;11875;49.356;2.718;2023-05-01T10:31:16;13.45;;;7.90;;
23404;SDS011;11875;49.356;2.718;2023-05-01T10:33:45;12.90;;;8.30;;
23404;SDS011;11875;49.356;2.718;2023-05-01T10:36:15;13.63;;;8.30;;
23404;SDS011;11875;49.356;2.718;2023-05-01T10:38:45;10.77;;;7.55;;
23404;SDS011;11875;49.356;2.718;2023-05-01T10:41:12;11.57;;;7.55;;
23404;SDS011;11875;49.356;2.718;2023-05-01T10:43:40;9.27;;;6.82;;
23404;SDS011;11875;49.356;2.718;2023-05-01T10:51:06;9.30;;;6.35;;
23404;SDS011;11875;49.356;2.718;2023-05-01T10:53:45;9.85;;;6.88;;
23404;SDS011;11875;49.356;2.718;2023-05-01T11:04:03;10.40;;;6.88;;
23404;SDS011;11875;49.356;2.718;2023-05-01T11:06:29;12.52;;;7.78;;
23404;SDS011;11875;49.356;2.718;2023-05-01T11:08:55;13.10;;;7.00;;
23404;SDS011;11875;49.356;2.718;2023-05-01T11:13:56;11.43;;;7.35;;
23404;SDS011;11875;49.356;2.718;2023-05-01T11:19:09;7.18;;;5.28;;
23404;SDS011;11875;49.356;2.718;2023-05-01T11:21:44;14.77;;;7.18;;
23404;SDS011;11875;49.356;2.718;2023-05-01T11:24:10;8.77;;;5.70;;
23404;SDS011;11875;49.356;2.718;2023-05-01T11:26:37;9.93;;;5.60;;
23404;SDS011;11875;49.356;2.718;2023-05-01T11:29:05;7.60;;;4.45;;
23404;SDS011;11875;49.356;2.718;2023-05-01T11:31:31;7.15;;;5.38;;
23404;SDS011;11875;49.356;2.718;2023-05-01T11:33:57;8.85;;;5.72;;
23404;SDS011;11875;49.356;2.718;2023-05-01T11:36:24;9.95;;;5.50;;
23404;SDS011;11875;49.356;2.718;2023-05-01T11:38:51;8.70;;;4.88;;
23404;SDS011;11875;49.356;2.718;2023-05-01T11:41:22;8.90;;;6.03;;
23404;SDS011;11875;49.356;2.718;2023-05-01T11:43:52;6.28;;;4.70;;
23404;SDS011;11875;49.356;2.718;2023-05-01T11:46:29;9.32;;;5.95;;
23404;SDS011;11875;49.356;2.718;2023-05-01T11:48:56;7.57;;;5.38;;
23404;SDS011;11875;49.356;2.718;2023-05-01T11:51:24;12.02;;;6.25;;
23404;SDS011;11875;49.356;2.718;2023-05-01T11:56:26;7.60;;;5.30;;
23404;SDS011;11875;49.356;2.718;2023-05-01T11:58:52;8.35;;;5.65;;
23404;SDS011;11875;49.356;2.718;2023-05-01T12:01:19;6.30;;;4.70;;
23404;SDS011;11875;49.356;2.718;2023-05-01T12:03:44;7.72;;;5.38;;
23404;SDS011;11875;49.356;2.718;2023-05-01T12:06:10;8.35;;;5.20;;
23404;SDS011;11875;49.356;2.718;2023-05-01T12:08:40;7.63;;;5.43;;
23404;SDS011;11875;49.356;2.718;2023-05-01T12:11:07;7.82;;;5.30;;
23404;SDS011;11875;49.356;2.718;2023-05-01T12:13:33;7.35;;;5.30;;
23404;SDS011;11875;49.356;2.718;2023-05-01T12:15:59;7.25;;;5.05;;
23404;SDS011;11875;49.356;2.718;2023-05-01T12:18:25;7.18;;;4.65;;
23404;SDS011;11875;49.356;2.718;2023-05-01T12:20:54;6.82;;;4.55;;
23404;SDS011;11875;49.356;2.718;2023-05-01T12:23:30;5.63;;;4.15;;
23404;SDS011;11875;49.356;2.718;2023-05-01T12:25:57;6.32;;;4.10;;
23404;SDS011;11875;49.356;2.718;2023-05-01T12:28:26;6.28;;;4.57;;
23404;SDS011;11875;49.356;2.718;2023-05-01T12:30:52;8.77;;;4.40;;
23404;SDS011;11875;49.356;2.718;2023-05-01T12:33:25;6.43;;;4.53;;
23404;SDS011;11875;49.356;2.718;2023-05-01T12:35:51;7.20;;;4.75;;
23404;SDS011;11875;49.356;2.718;2023-05-01T12:38:17;6.97;;;4.32;;
23404;SDS011;11875;49.356;2.718;2023-05-01T12:40:48;6.85;;;4.30;;
23404;SDS011;11875;49.356;2.718;2023-05-01T12:43:19;7.47;;;5.28;;
23404;SDS011;11875;49.356;2.718;2023-05-01T12:45:47;5.75;;;3.95;;
23404;SDS011;11875;49.356;2.718;2023-05-01T12:48:17;4.53;;;3.30;;
23404;SDS011;11875;49.356;2.718;2023-05-01T12:50:43;6.20;;;4.78;;
23404;SDS011;11875;49.356;2.718;2023-05-01T12:53:10;19.15;;;11.50;;
23404;SDS011;11875;49.356;2.718;2023-05-01T12:55:42;7.38;;;5.47;;
23404;SDS011;11875;49.356;2.718;2023-05-01T12:58:12;6.78;;;4.78;;
23404;SDS011;11875;49.356;2.718;2023-05-01T13:00:42;6.90;;;5.43;;
23404;SDS011;11875;49.356;2.718;2023-05-01T13:03:25;10.65;;;6.30;;
23404;SDS011;11875;49.356;2.718;2023-05-01T13:05:53;7.53;;;5.10;;
23404;SDS011;11875;49.356;2.718;2023-05-01T13:08:36;8.05;;;5.38;;
23404;SDS011;11875;49.356;2.718;2023-05-01T13:11:13;7.97;;;5.95;;
23404;SDS011;11875;49.356;2.718;2023-05-01T13:13:41;9.52;;;6.00;;
23404;SDS011;11875;49.356;2.718;2023-05-01T13:18:44;10.48;;;6.03;;
23404;SDS011;11875;49.356;2.718;2023-05-01T13:21:15;9.65;;;6.18;;
23404;SDS011;11875;49.356;2.718;2023-05-01T13:23:57;7.68;;;5.85;;
23404;SDS011;11875;49.356;2.718;2023-05-01T13:26:30;4.90;;;3.33;;
23404;SDS011;11875;49.356;2.718;2023-05-01T13:28:57;3.17;;;2.53;;
23404;SDS011;11875;49.356;2.718;2023-05-01T13:31:25;5.50;;;3.35;;
23404;SDS011;11875;49.356;2.718;2023-05-01T13:33:52;1.45;;;1.20;;
23404;SDS011;11875;49.356;2.718;2023-05-01T13:36:19;1.70;;;1.20;;
23404;SDS011;11875;49.356;2.718;2023-05-01T13:38:46;7.10;;;1.80;;
23404;SDS011;11875;49.356;2.718;2023-05-01T13:41:18;7.20;;;2.78;;
23404;SDS011;11875;49.356;2.718;2023-05-01T13:43:46;7.57;;;2.70;;
23404;SDS011;11875;49.356;2.718;2023-05-01T13:46:12;5.95;;;2.78;;
23404;SDS011;11875;49.356;2.718;2023-05-01T13:48:39;7.20;;;3.45;;
23404;SDS011;11875;49.356;2.718;2023-05-01T13:51:06;4.93;;;3.28;;
23404;SDS011;11875;49.356;2.718;2023-05-01T13:53:32;6.65;;;4.00;;
23404;SDS011;11875;49.356;2.718;2023-05-01T13:55:58;6.15;;;3.28;;
23404;SDS011;11875;49.356;2.718;2023-05-01T13:58:24;5.30;;;3.30;;
23404;SDS011;11875;49.356;2.718;2023-05-01T14:00:53;3.38;;;2.67;;
23404;SDS011;11875;49.356;2.718;2023-05-01T14:03:19;3.97;;;2.85;;
23404;SDS011;11875;49.356;2.718;2023-05-01T14:05:46;5.97;;;3.10;;
23404;SDS011;11875;49.356;2.718;2023-05-01T14:08:12;7.72;;;3.60;;
23404;SDS011;11875;49.356;2.718;2023-05-01T14:10:38;5.47;;;3.45;;
23404;SDS011;11875;49.356;2.718;2023-05-01T14:13:04;5.32;;;2.90;;
23404;SDS011;11875;49.356;2.718;2023-05-01T14:15:33;3.65;;;2.13;;
23404;SDS011;11875;49.356;2.718;2023-05-01T14:18:05;4.70;;;2.90;;
23404;SDS011;11875;49.356;2.718;2023-05-01T14:20:31;4.13;;;3.08;;
23404;SDS011;11875;49.356;2.718;2023-05-01T14:22:57;3.67;;;2.60;;
23404;SDS011;11875;49.356;2.718;2023-05-01T14:25:24;4.72;;;2.35;;
23404;SDS011;11875;49.356;2.718;2023-05-01T14:27:52;4.75;;;2.38;;
23404;SDS011;11875;49.356;2.718;2023-05-01T14:30:23;17.20;;;10.48;;
23404;SDS011;11875;49.356;2.718;2023-05-01T14:32:51;6.07;;;2.40;;
23404;SDS011;11875;49.356;2.718;2023-05-01T14:35:19;4.75;;;2.15;;
23404;SDS011;11875;49.356;2.718;2023-05-01T14:37:46;3.47;;;2.17;;
23404;SDS011;11875;49.356;2.718;2023-05-01T14:40:11;5.32;;;2.15;;
23404;SDS011;11875;49.356;2.718;2023-05-01T14:42:41;4.60;;;2.72;;
23404;SDS011;11875;49.356;2.718;2023-05-01T14:45:14;6.93;;;2.13;;
23404;SDS011;11875;49.356;2.718;2023-05-01T14:47:43;7.07;;;2.50;;
23404;SDS011;11875;49.356;2.718;2023-05-01T14:50:10;3.58;;;2.10;;
23404;SDS011;11875;49.356;2.718;2023-05-01T14:52:39;5.43;;;2.42;;
23404;SDS011;11875;49.356;2.718;2023-05-01T14:55:05;5.80;;;2.50;;
23404;SDS011;11875;49.356;2.718;2023-05-01T14:57:32;4.03;;;2.95;;
23404;SDS011;11875;49.356;2.718;2023-05-01T14:59:58;5.00;;;2.55;;
23404;SDS011;11875;49.356;2.718;2023-05-01T15:02:23;29.48;;;11.20;;
23404;SDS011;11875;49.356;2.718;2023-05-01T15:04:49;7.63;;;3.05;;
23404;SDS011;11875;49.356;2.718;2023-05-01T15:07:15;7.10;;;2.53;;
23404;SDS011;11875;49.356;2.718;2023-05-01T15:09:41;7.13;;;2.25;;